createdAt,value
2023-03-01T00:00:51.278Z,3.58
2023-03-01T00:05:53.321Z,4.70
2023-03-01T00:11:07.291Z,7.20
2023-03-01T00:16:12.267Z,4.15
2023-03-01T00:21:14.446Z,5.67
2023-03-01T00:26:17.874Z,8.10
2023-03-01T00:31:22.948Z,7.72
2023-03-01T00:36:27.848Z,9.73
2023-03-01T00:41:30.486Z,11.00
2023-03-01T00:46:33.094Z,9.82
2023-03-01T00:51:35.410Z,13.18
2023-03-01T00:56:37.555Z,12.65
2023-03-01T01:01:40.173Z,14.85
2023-03-01T01:06:44.811Z,12.60
2023-03-01T01:11:51.816Z,14.98
2023-03-01T01:16:54.796Z,12.27
2023-03-01T01:21:56.904Z,12.90
2023-03-01T01:26:59.184Z,14.88
2023-03-01T01:32:01.530Z,14.30
2023-03-01T01:37:04.178Z,16.20
2023-03-01T01:42:06.380Z,14.20
2023-03-01T01:47:19.837Z,11.77
2023-03-01T01:52:25.452Z,14.02
2023-03-01T01:57:35.031Z,13.85
2023-03-01T02:02:39.149Z,14.85
2023-03-01T02:07:42.450Z,14.35
2023-03-01T02:12:45.194Z,14.35
2023-03-01T02:17:47.365Z,17.05
2023-03-01T02:22:50.389Z,10.63
2023-03-01T02:27:52.490Z,12.18
2023-03-01T02:33:04.299Z,12.98
2023-03-01T02:38:09.809Z,14.13
2023-03-01T02:43:13.305Z,16.70
2023-03-01T02:48:16.505Z,16.75
2023-03-01T02:53:29.792Z,20.55
2023-03-01T02:58:32.108Z,17.63
2023-03-01T03:03:34.259Z,20.35
2023-03-01T03:08:36.683Z,19.63
2023-03-01T03:13:48.940Z,18.90
2023-03-01T03:18:51.874Z,21.42
2023-03-01T03:23:53.950Z,18.05
2023-03-01T03:28:56.296Z,15.68
2023-03-01T03:33:59.992Z,18.25
2023-03-01T03:39:02.089Z,16.15
2023-03-01T03:44:04.302Z,18.15
2023-03-01T03:49:06.387Z,17.92
2023-03-01T03:54:08.625Z,17.77
2023-03-01T03:59:12.394Z,15.07
2023-03-01T04:04:14.529Z,15.80
2023-03-01T04:09:16.704Z,14.98
2023-03-01T04:14:18.841Z,15.60
2023-03-01T04:19:20.880Z,13.98
2023-03-01T04:24:23.972Z,15.93
2023-03-01T04:29:26.042Z,15.18
2023-03-01T04:34:28.178Z,15.55
2023-03-01T04:39:30.412Z,14.50
2023-03-01T04:44:32.547Z,14.63
2023-03-01T04:49:34.705Z,16.23
2023-03-01T04:54:37.338Z,13.02
2023-03-01T04:59:39.496Z,13.05
2023-03-01T05:04:41.691Z,13.20
2023-03-01T05:09:43.766Z,13.48
2023-03-01T05:14:45.845Z,12.63
2023-03-01T05:19:47.924Z,15.20
2023-03-01T05:24:50.002Z,14.50
2023-03-01T05:29:52.060Z,16.00
2023-03-01T05:34:56.178Z,14.20
2023-03-01T05:39:58.278Z,13.88
2023-03-01T05:45:00.398Z,13.57
2023-03-01T05:50:03.469Z,16.27
2023-03-01T05:55:06.268Z,18.67
2023-03-01T06:00:10.122Z,17.35
2023-03-01T06:05:15.720Z,14.57
2023-03-01T06:10:19.484Z,13.93
2023-03-01T06:15:21.815Z,17.30
2023-03-01T06:20:25.984Z,14.10
2023-03-01T06:25:29.545Z,13.48
2023-03-01T06:30:31.689Z,16.63
2023-03-01T06:35:33.965Z,16.67
2023-03-01T06:40:38.770Z,15.20
2023-03-01T06:45:40.883Z,14.80
2023-03-01T06:50:43.079Z,15.38
2023-03-01T06:55:45.367Z,18.80
2023-03-01T07:00:47.759Z,22.40
2023-03-01T07:05:52.698Z,20.80
2023-03-01T07:10:58.988Z,18.95
2023-03-01T07:16:01.324Z,15.80
2023-03-01T07:21:08.422Z,15.68
2023-03-01T07:26:10.499Z,18.52
2023-03-01T07:31:12.565Z,15.10
2023-03-01T07:36:14.619Z,17.35
2023-03-01T07:41:16.812Z,25.70
2023-03-01T07:46:20.182Z,20.60
2023-03-01T07:51:22.395Z,18.23
2023-03-01T07:56:24.695Z,15.90
2023-03-01T08:01:26.795Z,17.00
2023-03-01T08:06:29.481Z,17.75
2023-03-01T08:11:31.911Z,15.63
2023-03-01T08:16:36.395Z,13.60
2023-03-01T08:21:38.990Z,15.60
2023-03-01T08:26:41.090Z,19.17
2023-03-01T08:31:43.292Z,17.55
2023-03-01T08:36:47.483Z,17.45
2023-03-01T08:41:49.695Z,16.52
2023-03-01T08:46:53.153Z,14.85
2023-03-01T08:51:55.460Z,13.63
2023-03-01T08:57:00.059Z,15.07
2023-03-01T09:02:02.208Z,15.98
2023-03-01T09:07:04.536Z,15.90
2023-03-01T09:12:06.914Z,14.30
2023-03-01T09:17:09.105Z,17.38
2023-03-01T09:22:11.354Z,20.48
2023-03-01T09:27:15.677Z,15.02
2023-03-01T09:32:17.844Z,18.45
2023-03-01T09:37:19.950Z,17.15
2023-03-01T09:42:22.779Z,17.83
2023-03-01T09:47:30.040Z,20.15
2023-03-01T09:52:55.414Z,19.40
2023-03-01T09:58:07.380Z,14.90
2023-03-01T10:03:28.557Z,21.08
2023-03-01T10:08:42.981Z,21.35
2023-03-01T10:14:08.118Z,19.42
2023-03-01T10:19:15.146Z,22.63
2023-03-01T10:24:22.829Z,26.33
2023-03-01T10:29:45.778Z,22.80
2023-03-01T10:34:48.289Z,25.73
2023-03-01T10:40:09.438Z,24.33
2023-03-01T10:45:20.485Z,23.73
2023-03-01T10:50:23.892Z,24.42
2023-03-01T10:55:29.130Z,20.83
2023-03-01T11:00:31.684Z,23.80
2023-03-01T11:05:34.693Z,21.98
2023-03-01T11:10:37.331Z,21.27
2023-03-01T11:15:39.440Z,24.08
2023-03-01T11:20:42.334Z,20.33
2023-03-01T11:25:52.352Z,20.60
2023-03-01T11:31:08.612Z,21.25
2023-03-01T11:36:23.858Z,20.88
2023-03-01T11:41:31.388Z,22.60
2023-03-01T11:46:33.930Z,25.42
2023-03-01T11:51:55.120Z,22.65
2023-03-01T11:57:05.550Z,21.02
2023-03-01T12:02:35.611Z,23.02
2023-03-01T12:08:04.028Z,23.48
2023-03-01T12:13:44.630Z,22.80
2023-03-01T12:19:13.584Z,21.38
2023-03-01T12:24:24.427Z,20.92
2023-03-01T12:29:35.537Z,22.55
2023-03-01T12:35:10.845Z,20.80
2023-03-01T12:40:35.015Z,15.85
2023-03-01T12:45:55.530Z,24.65
2023-03-01T12:51:03.886Z,20.92
2023-03-01T12:56:27.657Z,16.77
2023-03-01T13:01:39.866Z,19.65
2023-03-01T13:07:06.505Z,21.70
2023-03-01T13:12:59.658Z,19.38
2023-03-01T13:18:28.458Z,20.65
2023-03-01T13:23:37.187Z,17.65
2023-03-01T13:28:47.126Z,23.30
2023-03-01T13:33:55.872Z,22.85
2023-03-01T13:38:59.768Z,24.58
2023-03-01T13:44:02.094Z,22.73
2023-03-01T13:49:04.356Z,27.05
2023-03-01T13:54:06.493Z,19.02
2023-03-01T13:59:18.184Z,23.95
2023-03-01T14:04:24.938Z,21.48
2023-03-01T14:09:32.579Z,23.77
2023-03-01T14:14:58.696Z,22.38
2023-03-01T14:20:05.435Z,19.87
2023-03-01T14:25:18.206Z,18.85
2023-03-01T14:30:27.317Z,17.83
2023-03-01T14:35:32.747Z,18.58
2023-03-01T14:40:37.927Z,20.70
2023-03-01T14:45:40.090Z,17.90
2023-03-01T14:50:44.369Z,17.45
2023-03-01T14:55:52.920Z,15.23
2023-03-01T15:00:58.631Z,13.48
2023-03-01T15:11:31.154Z,19.60
2023-03-01T15:16:35.105Z,15.80
2023-03-01T15:21:39.761Z,22.80
2023-03-01T15:26:45.180Z,20.13
2023-03-01T15:32:05.577Z,16.13
2023-03-01T15:37:28.489Z,16.27
2023-03-01T15:42:30.598Z,16.88
2023-03-01T15:47:33.447Z,14.23
2023-03-01T15:52:41.303Z,17.40
2023-03-01T15:57:43.426Z,14.95
2023-03-01T16:02:45.788Z,17.63
2023-03-01T16:07:48.039Z,20.60
2023-03-01T16:12:53.636Z,15.75
2023-03-01T16:17:56.048Z,16.50
2023-03-01T16:23:03.292Z,17.17
2023-03-01T16:28:10.051Z,18.38
2023-03-01T16:33:27.494Z,16.10
2023-03-01T16:38:35.734Z,19.73
2023-03-01T16:43:37.830Z,15.85
2023-03-01T16:48:40.700Z,14.95
2023-03-01T16:53:43.588Z,19.45
2023-03-01T16:58:46.423Z,14.40
2023-03-01T17:03:50.370Z,13.82
2023-03-01T17:08:52.783Z,7.90
2023-03-01T17:13:54.981Z,8.43
2023-03-01T17:18:57.630Z,15.25
2023-03-01T17:24:00.987Z,14.40
2023-03-01T17:29:05.224Z,13.15
2023-03-01T17:34:07.333Z,12.57
2023-03-01T17:39:09.846Z,11.63
2023-03-01T17:44:12.187Z,11.60
2023-03-01T17:49:14.347Z,17.15
2023-03-01T17:54:16.379Z,12.65
2023-03-01T17:59:18.782Z,10.30
2023-03-01T18:04:20.845Z,8.07
2023-03-01T18:09:23.157Z,7.53
2023-03-01T18:14:25.956Z,9.63
2023-03-01T18:19:28.957Z,9.40
2023-03-01T18:24:31.021Z,6.43
2023-03-01T18:29:33.198Z,10.10
2023-03-01T18:34:35.495Z,11.20
2023-03-01T18:39:38.141Z,7.75
2023-03-01T18:44:40.173Z,9.45
2023-03-01T18:49:42.284Z,12.65
2023-03-01T18:54:44.344Z,8.40
2023-03-01T18:59:46.481Z,9.43
2023-03-01T19:04:51.113Z,9.48
2023-03-01T19:09:53.530Z,9.98
2023-03-01T19:14:55.641Z,10.73
2023-03-01T19:19:58.358Z,9.00
2023-03-01T19:25:00.530Z,10.15
2023-03-01T19:30:02.768Z,11.15
2023-03-01T19:35:05.463Z,9.65
2023-03-01T19:40:08.465Z,9.40
2023-03-01T19:45:10.673Z,5.05
2023-03-01T19:50:13.791Z,7.15
2023-03-01T19:55:15.983Z,9.18
2023-03-01T20:00:18.400Z,9.80
2023-03-01T20:05:20.536Z,6.63
2023-03-01T20:10:23.129Z,7.45
2023-03-01T20:15:25.382Z,5.07
2023-03-01T20:20:27.422Z,4.70
2023-03-01T20:25:29.619Z,3.85
2023-03-01T20:30:31.703Z,3.83
2023-03-01T20:35:36.078Z,7.40
2023-03-01T20:40:38.363Z,7.47
2023-03-01T20:45:40.494Z,3.60
2023-03-01T20:50:42.516Z,2.88
2023-03-01T20:55:45.267Z,3.05
2023-03-01T21:00:51.963Z,3.40
2023-03-01T21:05:58.468Z,2.63
2023-03-01T21:11:00.867Z,5.07
2023-03-01T21:16:10.475Z,3.85
2023-03-01T21:21:18.810Z,3.65
2023-03-01T21:26:24.374Z,5.05
2023-03-01T21:31:29.330Z,7.13
2023-03-01T21:36:32.637Z,6.20
2023-03-01T21:41:37.352Z,4.90
2023-03-01T21:46:39.739Z,4.95
2023-03-01T21:51:41.944Z,4.80
2023-03-01T21:56:45.212Z,5.15
2023-03-01T22:01:52.446Z,5.00
2023-03-01T22:06:54.618Z,7.18
2023-03-01T22:12:02.643Z,2.80
2023-03-01T22:17:04.944Z,3.50
2023-03-01T22:22:07.180Z,8.13
2023-03-01T22:27:09.324Z,9.27
2023-03-01T22:32:11.571Z,6.03
2023-03-01T22:37:13.848Z,8.23
2023-03-01T22:42:15.928Z,5.13
2023-03-01T22:47:18.158Z,4.53
2023-03-01T22:52:20.234Z,3.45
2023-03-01T22:57:22.402Z,3.03
2023-03-01T23:02:25.551Z,3.70
2023-03-01T23:07:27.728Z,5.07
2023-03-01T23:12:30.038Z,7.55
2023-03-01T23:17:32.382Z,10.35
2023-03-01T23:22:34.479Z,9.70
2023-03-01T23:27:37.598Z,7.85
2023-03-01T23:32:40.529Z,8.27
2023-03-01T23:37:42.762Z,7.13
2023-03-01T23:42:44.878Z,9.77
2023-03-01T23:47:47.075Z,9.23
2023-03-01T23:52:49.157Z,7.50
2023-03-01T23:57:51.285Z,7.00
